sensor_id;sensor_type;location;lat;lon;timestamp;pressure;altitude;pressure_sealevel;temperature
15062;BMP180;7630;50.306;8.566;2023-04-01T00:00:46;96015.00;;;9.60
15062;BMP180;7630;50.306;8.566;2023-04-01T00:04:48;96003.00;;;9.70
15062;BMP180;7630;50.306;8.566;2023-04-01T00:08:50;96025.00;;;10.00
15062;BMP180;7630;50.306;8.566;2023-04-01T00:12:51;96003.00;;;9.70
15062;BMP180;7630;50.306;8.566;2023-04-01T00:16:52;96012.00;;;9.90
15062;BMP180;7630;50.306;8.566;2023-04-01T00:20:53;96012.00;;;9.40
15062;BMP180;7630;50.306;8.566;2023-04-01T00:24:54;95994.00;;;9.30
15062;BMP180;7630;50.306;8.566;2023-04-01T00:28:56;95990.00;;;9.20
15062;BMP180;7630;50.306;8.566;2023-04-01T00:32:57;96009.00;;;9.00
15062;BMP180;7630;50.306;8.566;2023-04-01T00:36:58;96005.00;;;9.50
15062;BMP180;7630;50.306;8.566;2023-04-01T00:40:59;95996.00;;;9.30
15062;BMP180;7630;50.306;8.566;2023-04-01T00:45:23;96005.00;;;9.10
15062;BMP180;7630;50.306;8.566;2023-04-01T00:49:05;96011.00;;;9.20
15062;BMP180;7630;50.306;8.566;2023-04-01T00:53:07;96006.00;;;9.30
15062;BMP180;7630;50.306;8.566;2023-04-01T00:57:21;95996.00;;;9.10
15062;BMP180;7630;50.306;8.566;2023-04-01T01:01:24;95999.00;;;9.20
15062;BMP180;7630;50.306;8.566;2023-04-01T01:05:33;96000.00;;;9.10
15062;BMP180;7630;50.306;8.566;2023-04-01T01:09:47;96004.00;;;9.20
15062;BMP180;7630;50.306;8.566;2023-04-01T01:13:56;96012.00;;;9.70
15062;BMP180;7630;50.306;8.566;2023-04-01T01:18:12;96009.00;;;9.40
15062;BMP180;7630;50.306;8.566;2023-04-01T01:26:58;96006.00;;;9.20
15062;BMP180;7630;50.306;8.566;2023-04-01T01:39:26;96002.00;;;9.20
15062;BMP180;7630;50.306;8.566;2023-04-01T01:43:33;95997.00;;;9.40
15062;BMP180;7630;50.306;8.566;2023-04-01T01:47:35;95998.00;;;9.30
15062;BMP180;7630;50.306;8.566;2023-04-01T01:51:37;96003.00;;;9.30
15062;BMP180;7630;50.306;8.566;2023-04-01T01:55:42;95998.00;;;9.30
15062;BMP180;7630;50.306;8.566;2023-04-01T01:59:44;95998.00;;;9.10
15062;BMP180;7630;50.306;8.566;2023-04-01T02:03:46;95993.00;;;9.40
15062;BMP180;7630;50.306;8.566;2023-04-01T02:08:13;95987.00;;;8.70
15062;BMP180;7630;50.306;8.566;2023-04-01T02:12:06;95994.00;;;9.20
15062;BMP180;7630;50.306;8.566;2023-04-01T02:16:14;95986.00;;;8.90
15062;BMP180;7630;50.306;8.566;2023-04-01T02:20:18;95983.00;;;9.20
15062;BMP180;7630;50.306;8.566;2023-04-01T02:24:20;95983.00;;;9.30
15062;BMP180;7630;50.306;8.566;2023-04-01T02:28:24;95986.00;;;8.80
15062;BMP180;7630;50.306;8.566;2023-04-01T02:32:27;95971.00;;;9.00
15062;BMP180;7630;50.306;8.566;2023-04-01T02:36:28;95976.00;;;9.30
15062;BMP180;7630;50.306;8.566;2023-04-01T02:40:49;95990.00;;;9.40
15062;BMP180;7630;50.306;8.566;2023-04-01T02:44:47;95979.00;;;8.90
15062;BMP180;7630;50.306;8.566;2023-04-01T02:48:48;95988.00;;;9.30
15062;BMP180;7630;50.306;8.566;2023-04-01T02:52:49;95984.00;;;9.30
15062;BMP180;7630;50.306;8.566;2023-04-01T02:56:50;95978.00;;;9.20
15062;BMP180;7630;50.306;8.566;2023-04-01T03:00:51;95970.00;;;9.00
15062;BMP180;7630;50.306;8.566;2023-04-01T03:04:53;95984.00;;;8.80
15062;BMP180;7630;50.306;8.566;2023-04-01T03:08:54;95978.00;;;8.80
15062;BMP180;7630;50.306;8.566;2023-04-01T03:12:55;95973.00;;;9.10
15062;BMP180;7630;50.306;8.566;2023-04-01T03:16:56;95987.00;;;8.90
15062;BMP180;7630;50.306;8.566;2023-04-01T03:21:22;95974.00;;;9.20
15062;BMP180;7630;50.306;8.566;2023-04-01T03:25:20;95975.00;;;8.90
15062;BMP180;7630;50.306;8.566;2023-04-01T03:29:21;95983.00;;;8.80
15062;BMP180;7630;50.306;8.566;2023-04-01T03:33:22;95983.00;;;8.60
15062;BMP180;7630;50.306;8.566;2023-04-01T03:37:24;95984.00;;;8.60
15062;BMP180;7630;50.306;8.566;2023-04-01T03:41:25;95994.00;;;8.60
15062;BMP180;7630;50.306;8.566;2023-04-01T03:45:27;95982.00;;;8.90
15062;BMP180;7630;50.306;8.566;2023-04-01T03:49:28;95977.00;;;8.30
15062;BMP180;7630;50.306;8.566;2023-04-01T03:53:29;95987.00;;;8.70
15062;BMP180;7630;50.306;8.566;2023-04-01T03:57:31;95991.00;;;8.90
15062;BMP180;7630;50.306;8.566;2023-04-01T04:01:33;95985.00;;;8.80
15062;BMP180;7630;50.306;8.566;2023-04-01T04:05:34;95983.00;;;9.00
15062;BMP180;7630;50.306;8.566;2023-04-01T04:09:36;95976.00;;;9.10
15062;BMP180;7630;50.306;8.566;2023-04-01T04:13:37;95980.00;;;8.80
15062;BMP180;7630;50.306;8.566;2023-04-01T04:17:38;95987.00;;;8.80
15062;BMP180;7630;50.306;8.566;2023-04-01T04:21:41;95988.00;;;8.60
15062;BMP180;7630;50.306;8.566;2023-04-01T04:25:57;95982.00;;;8.70
15062;BMP180;7630;50.306;8.566;2023-04-01T04:29:56;95987.00;;;8.60
15062;BMP180;7630;50.306;8.566;2023-04-01T04:33:59;95982.00;;;8.90
15062;BMP180;7630;50.306;8.566;2023-04-01T04:38:01;95995.00;;;8.80
15062;BMP180;7630;50.306;8.566;2023-04-01T04:42:03;95970.00;;;8.50
15062;BMP180;7630;50.306;8.566;2023-04-01T04:46:10;95977.00;;;9.20
15062;BMP180;7630;50.306;8.566;2023-04-01T04:50:11;95987.00;;;8.70
15062;BMP180;7630;50.306;8.566;2023-04-01T04:54:12;95987.00;;;9.10
15062;BMP180;7630;50.306;8.566;2023-04-01T04:58:14;95988.00;;;8.90
15062;BMP180;7630;50.306;8.566;2023-04-01T05:02:15;95995.00;;;8.80
15062;BMP180;7630;50.306;8.566;2023-04-01T05:06:17;95987.00;;;8.90
15062;BMP180;7630;50.306;8.566;2023-04-01T05:10:18;95959.00;;;9.10
15062;BMP180;7630;50.306;8.566;2023-04-01T05:14:21;95997.00;;;9.00
15062;BMP180;7630;50.306;8.566;2023-04-01T05:18:22;95995.00;;;8.90
15062;BMP180;7630;50.306;8.566;2023-04-01T05:22:23;95990.00;;;8.90
15062;BMP180;7630;50.306;8.566;2023-04-01T05:26:24;95982.00;;;9.30
15062;BMP180;7630;50.306;8.566;2023-04-01T05:30:26;95981.00;;;9.10
15062;BMP180;7630;50.306;8.566;2023-04-01T05:34:27;95871.00;;;9.00
15062;BMP180;7630;50.306;8.566;2023-04-01T05:38:28;95975.00;;;9.20
15062;BMP180;7630;50.306;8.566;2023-04-01T05:42:29;95987.00;;;9.20
15062;BMP180;7630;50.306;8.566;2023-04-01T05:46:31;95986.00;;;8.50
15062;BMP180;7630;50.306;8.566;2023-04-01T05:50:32;95993.00;;;9.40
15062;BMP180;7630;50.306;8.566;2023-04-01T05:54:34;95984.00;;;9.10
15062;BMP180;7630;50.306;8.566;2023-04-01T05:58:37;95973.00;;;8.90
15062;BMP180;7630;50.306;8.566;2023-04-01T06:02:38;95984.00;;;9.50
15062;BMP180;7630;50.306;8.566;2023-04-01T06:06:40;95978.00;;;8.80
15062;BMP180;7630;50.306;8.566;2023-04-01T06:15:15;95991.00;;;9.00
15062;BMP180;7630;50.306;8.566;2023-04-01T06:28:07;95986.00;;;9.50
15062;BMP180;7630;50.306;8.566;2023-04-01T06:32:37;95989.00;;;9.50
15062;BMP180;7630;50.306;8.566;2023-04-01T06:41:30;95991.00;;;9.80
15062;BMP180;7630;50.306;8.566;2023-04-01T06:45:53;95990.00;;;9.60
15062;BMP180;7630;50.306;8.566;2023-04-01T06:54:28;95998.00;;;9.70
15062;BMP180;7630;50.306;8.566;2023-04-01T06:58:41;95997.00;;;9.80
15062;BMP180;7630;50.306;8.566;2023-04-01T07:02:48;95993.00;;;9.80
15062;BMP180;7630;50.306;8.566;2023-04-01T07:06:55;95999.00;;;9.40
15062;BMP180;7630;50.306;8.566;2023-04-01T07:11:01;96002.00;;;9.90
15062;BMP180;7630;50.306;8.566;2023-04-01T07:15:18;95998.00;;;10.50
15062;BMP180;7630;50.306;8.566;2023-04-01T07:19:45;95996.00;;;10.10
15062;BMP180;7630;50.306;8.566;2023-04-01T07:23:46;95999.00;;;10.20
15062;BMP180;7630;50.306;8.566;2023-04-01T07:27:48;96004.00;;;10.40
15062;BMP180;7630;50.306;8.566;2023-04-01T07:31:59;96002.00;;;10.40
15062;BMP180;7630;50.306;8.566;2023-04-01T07:40:39;96016.00;;;10.40
15062;BMP180;7630;50.306;8.566;2023-04-01T07:44:59;96013.00;;;10.50
15062;BMP180;7630;50.306;8.566;2023-04-01T07:49:07;96025.00;;;10.50
15062;BMP180;7630;50.306;8.566;2023-04-01T07:57:30;96026.00;;;10.90
15062;BMP180;7630;50.306;8.566;2023-04-01T08:01:35;96031.00;;;11.20
15062;BMP180;7630;50.306;8.566;2023-04-01T08:05:57;96026.00;;;11.40
15062;BMP180;7630;50.306;8.566;2023-04-01T08:10:32;96028.00;;;10.90
15062;BMP180;7630;50.306;8.566;2023-04-01T08:23:26;96048.00;;;11.40
15062;BMP180;7630;50.306;8.566;2023-04-01T08:27:37;96051.00;;;11.30
15062;BMP180;7630;50.306;8.566;2023-04-01T08:31:44;96044.00;;;11.10
15062;BMP180;7630;50.306;8.566;2023-04-01T08:36:05;96051.00;;;11.90
15062;BMP180;7630;50.306;8.566;2023-04-01T09:11:08;96062.00;;;12.40
15062;BMP180;7630;50.306;8.566;2023-04-01T09:15:30;96068.00;;;12.20
15062;BMP180;7630;50.306;8.566;2023-04-01T09:24:09;96076.00;;;12.20
15062;BMP180;7630;50.306;8.566;2023-04-01T09:37:01;96082.00;;;12.60
15062;BMP180;7630;50.306;8.566;2023-04-01T09:41:15;96081.00;;;11.40
15062;BMP180;7630;50.306;8.566;2023-04-01T09:45:43;96087.00;;;12.20
15062;BMP180;7630;50.306;8.566;2023-04-01T10:38:33;96104.00;;;12.50
15062;BMP180;7630;50.306;8.566;2023-04-01T10:56:04;96109.00;;;11.60
15062;BMP180;7630;50.306;8.566;2023-04-01T11:18:02;96118.00;;;12.50
15062;BMP180;7630;50.306;8.566;2023-04-01T11:30:56;96125.00;;;11.90
15062;BMP180;7630;50.306;8.566;2023-04-01T11:39:32;96140.00;;;11.70
15062;BMP180;7630;50.306;8.566;2023-04-01T11:47:54;96143.00;;;11.90
15062;BMP180;7630;50.306;8.566;2023-04-01T11:56:53;96149.00;;;11.90
15062;BMP180;7630;50.306;8.566;2023-04-01T12:09:31;96173.00;;;12.20
15062;BMP180;7630;50.306;8.566;2023-04-01T12:22:42;96178.00;;;12.30
15062;BMP180;7630;50.306;8.566;2023-04-01T12:26:55;96174.00;;;12.50
15062;BMP180;7630;50.306;8.566;2023-04-01T12:39:41;96178.00;;;12.30
15062;BMP180;7630;50.306;8.566;2023-04-01T12:52:57;96173.00;;;13.00
15062;BMP180;7630;50.306;8.566;2023-04-01T13:06:00;96185.00;;;12.10
15062;BMP180;7630;50.306;8.566;2023-04-01T13:27:29;96197.00;;;13.10
15062;BMP180;7630;50.306;8.566;2023-04-01T13:31:38;96199.00;;;13.80
15062;BMP180;7630;50.306;8.566;2023-04-01T13:35:58;96204.00;;;12.90
15062;BMP180;7630;50.306;8.566;2023-04-01T13:53:06;96217.00;;;14.10
15062;BMP180;7630;50.306;8.566;2023-04-01T14:10:44;96220.00;;;12.60
15062;BMP180;7630;50.306;8.566;2023-04-01T14:19:03;96230.00;;;13.70
15062;BMP180;7630;50.306;8.566;2023-04-01T14:27:09;96237.00;;;14.20
15062;BMP180;7630;50.306;8.566;2023-04-01T14:44:57;96237.00;;;14.20
15062;BMP180;7630;50.306;8.566;2023-04-01T14:49:00;96236.00;;;14.30
15062;BMP180;7630;50.306;8.566;2023-04-01T14:53:23;96244.00;;;15.20
15062;BMP180;7630;50.306;8.566;2023-04-01T14:57:31;96248.00;;;14.50
15062;BMP180;7630;50.306;8.566;2023-04-01T15:14:46;96256.00;;;14.20
15062;BMP180;7630;50.306;8.566;2023-04-01T15:27:40;96274.00;;;16.50
15062;BMP180;7630;50.306;8.566;2023-04-01T15:31:50;96277.00;;;16.00
15062;BMP180;7630;50.306;8.566;2023-04-01T15:35:57;96280.00;;;14.90
15062;BMP180;7630;50.306;8.566;2023-04-01T15:49:00;96307.00;;;13.50
15062;BMP180;7630;50.306;8.566;2023-04-01T15:53:15;96317.00;;;12.80
15062;BMP180;7630;50.306;8.566;2023-04-01T15:57:28;96315.00;;;13.10
15062;BMP180;7630;50.306;8.566;2023-04-01T16:06:53;96327.00;;;12.60
15062;BMP180;7630;50.306;8.566;2023-04-01T16:10:23;96325.00;;;11.20
15062;BMP180;7630;50.306;8.566;2023-04-01T16:18:48;96356.00;;;11.90
15062;BMP180;7630;50.306;8.566;2023-04-01T16:31:34;96354.00;;;12.10
15062;BMP180;7630;50.306;8.566;2023-04-01T16:44:13;96373.00;;;13.00
15062;BMP180;7630;50.306;8.566;2023-04-01T16:48:17;96376.00;;;12.60
15062;BMP180;7630;50.306;8.566;2023-04-01T16:52:32;96385.00;;;13.20
15062;BMP180;7630;50.306;8.566;2023-04-01T16:56:39;96389.00;;;12.90
15062;BMP180;7630;50.306;8.566;2023-04-01T17:00:50;96391.00;;;13.00
15062;BMP180;7630;50.306;8.566;2023-04-01T17:05:05;96391.00;;;13.20
15062;BMP180;7630;50.306;8.566;2023-04-01T17:09:29;96404.00;;;13.60
15062;BMP180;7630;50.306;8.566;2023-04-01T17:17:55;96408.00;;;14.10
15062;BMP180;7630;50.306;8.566;2023-04-01T17:22:16;96416.00;;;13.50
15062;BMP180;7630;50.306;8.566;2023-04-01T17:26:28;96415.00;;;13.10
15062;BMP180;7630;50.306;8.566;2023-04-01T17:35:03;96433.00;;;13.30
15062;BMP180;7630;50.306;8.566;2023-04-01T17:43:36;96441.00;;;13.50
15062;BMP180;7630;50.306;8.566;2023-04-01T17:47:47;96448.00;;;13.80
15062;BMP180;7630;50.306;8.566;2023-04-01T17:56:04;96459.00;;;13.70
15062;BMP180;7630;50.306;8.566;2023-04-01T18:22:17;96518.00;;;13.10
15062;BMP180;7630;50.306;8.566;2023-04-01T18:26:23;96522.00;;;12.30
15062;BMP180;7630;50.306;8.566;2023-04-01T18:30:28;96531.00;;;12.60
15062;BMP180;7630;50.306;8.566;2023-04-01T18:34:51;96529.00;;;12.20
15062;BMP180;7630;50.306;8.566;2023-04-01T18:39:00;96543.00;;;12.00
15062;BMP180;7630;50.306;8.566;2023-04-01T18:43:05;96554.00;;;12.10
15062;BMP180;7630;50.306;8.566;2023-04-01T18:51:49;96566.00;;;12.20
15062;BMP180;7630;50.306;8.566;2023-04-01T18:55:56;96560.00;;;13.00
15062;BMP180;7630;50.306;8.566;2023-04-01T19:00:12;96570.00;;;13.10
15062;BMP180;7630;50.306;8.566;2023-04-01T19:04:19;96585.00;;;13.40
15062;BMP180;7630;50.306;8.566;2023-04-01T19:08:26;96590.00;;;13.40
15062;BMP180;7630;50.306;8.566;2023-04-01T19:12:40;96593.00;;;13.40
15062;BMP180;7630;50.306;8.566;2023-04-01T19:16:49;96592.00;;;13.20
15062;BMP180;7630;50.306;8.566;2023-04-01T19:20:59;96599.00;;;13.50
15062;BMP180;7630;50.306;8.566;2023-04-01T19:25:27;96612.00;;;13.70
15062;BMP180;7630;50.306;8.566;2023-04-01T19:33:56;96614.00;;;13.30
15062;BMP180;7630;50.306;8.566;2023-04-01T19:42:48;96624.00;;;13.40
15062;BMP180;7630;50.306;8.566;2023-04-01T19:47:02;96628.00;;;12.90
15062;BMP180;7630;50.306;8.566;2023-04-01T19:51:10;96634.00;;;12.40
15062;BMP180;7630;50.306;8.566;2023-04-01T19:55:32;96638.00;;;12.30
15062;BMP180;7630;50.306;8.566;2023-04-01T20:03:52;96656.00;;;12.10
15062;BMP180;7630;50.306;8.566;2023-04-01T20:07:59;96660.00;;;12.30
15062;BMP180;7630;50.306;8.566;2023-04-01T20:21:06;96670.00;;;11.90
15062;BMP180;7630;50.306;8.566;2023-04-01T20:29:41;96681.00;;;12.60
15062;BMP180;7630;50.306;8.566;2023-04-01T20:42:55;96698.00;;;11.90
15062;BMP180;7630;50.306;8.566;2023-04-01T20:51:16;96701.00;;;11.70
15062;BMP180;7630;50.306;8.566;2023-04-01T20:55:30;96699.00;;;11.00
15062;BMP180;7630;50.306;8.566;2023-04-01T20:59:55;96705.00;;;11.00
15062;BMP180;7630;50.306;8.566;2023-04-01T21:17:07;96722.00;;;11.70
15062;BMP180;7630;50.306;8.566;2023-04-01T21:30:01;96739.00;;;12.00
15062;BMP180;7630;50.306;8.566;2023-04-01T21:38:41;96753.00;;;11.20
15062;BMP180;7630;50.306;8.566;2023-04-01T21:47:15;96764.00;;;12.10
15062;BMP180;7630;50.306;8.566;2023-04-01T22:17:08;96796.00;;;12.30
15062;BMP180;7630;50.306;8.566;2023-04-01T22:21:18;96797.00;;;12.50
15062;BMP180;7630;50.306;8.566;2023-04-01T22:38:40;96824.00;;;12.90
15062;BMP180;7630;50.306;8.566;2023-04-01T22:42:48;96829.00;;;12.40
15062;BMP180;7630;50.306;8.566;2023-04-01T22:55:34;96831.00;;;12.60
15062;BMP180;7630;50.306;8.566;2023-04-01T22:59:58;96831.00;;;12.10
15062;BMP180;7630;50.306;8.566;2023-04-01T23:04:03;96841.00;;;11.90
15062;BMP180;7630;50.306;8.566;2023-04-01T23:12:34;96837.00;;;12.30
15062;BMP180;7630;50.306;8.566;2023-04-01T23:16:39;96846.00;;;11.80
15062;BMP180;7630;50.306;8.566;2023-04-01T23:20:57;96853.00;;;11.90
15062;BMP180;7630;50.306;8.566;2023-04-01T23:29:20;96870.00;;;12.90
15062;BMP180;7630;50.306;8.566;2023-04-01T23:33:26;96859.00;;;13.20
15062;BMP180;7630;50.306;8.566;2023-04-01T23:37:26;96872.00;;;13.40
15062;BMP180;7630;50.306;8.566;2023-04-01T23:41:30;96878.00;;;13.40
15062;BMP180;7630;50.306;8.566;2023-04-01T23:45:33;96875.00;;;13.40
15062;BMP180;7630;50.306;8.566;2023-04-01T23:49:37;96878.00;;;13.40
15062;BMP180;7630;50.306;8.566;2023-04-01T23:53:42;96886.00;;;13.50
